createdAt,value
2023-03-10T00:01:25.102Z,5.38
2023-03-10T00:03:52.914Z,6.07
2023-03-10T00:06:24.157Z,5.33
2023-03-10T00:08:51.284Z,6.72
2023-03-10T00:11:19.005Z,6.63
2023-03-10T00:13:45.556Z,7.80
2023-03-10T00:16:26.922Z,7.63
2023-03-10T00:18:54.763Z,5.65
2023-03-10T00:21:27.255Z,6.03
2023-03-10T00:23:54.332Z,7.68
2023-03-10T00:26:21.872Z,6.10
2023-03-10T00:28:49.642Z,5.68
2023-03-10T00:31:22.347Z,5.80
2023-03-10T00:33:49.871Z,5.60
2023-03-10T00:36:23.502Z,5.82
2023-03-10T00:38:51.237Z,7.40
2023-03-10T00:41:21.218Z,5.10
2023-03-10T00:43:47.900Z,7.25
2023-03-10T00:46:15.022Z,4.85
2023-03-10T00:48:44.113Z,5.57
2023-03-10T00:51:12.637Z,6.43
2023-03-10T00:53:40.820Z,5.53
2023-03-10T00:56:29.050Z,5.38
2023-03-10T00:58:59.227Z,5.63
2023-03-10T01:01:34.316Z,5.57
2023-03-10T01:04:07.911Z,5.57
2023-03-10T01:06:36.322Z,4.63
2023-03-10T01:09:07.318Z,5.75
2023-03-10T01:11:34.521Z,5.25
2023-03-10T01:14:04.006Z,5.90
2023-03-10T01:16:31.157Z,6.25
2023-03-10T01:18:58.691Z,6.50
2023-03-10T01:21:29.071Z,5.13
2023-03-10T01:23:55.809Z,4.95
2023-03-10T01:26:23.256Z,5.50
2023-03-10T01:28:49.968Z,5.25
2023-03-10T01:31:17.585Z,5.18
2023-03-10T01:33:45.844Z,7.97
2023-03-10T01:36:21.604Z,5.90
2023-03-10T01:38:48.894Z,6.97
2023-03-10T01:41:15.919Z,5.00
2023-03-10T01:43:48.325Z,5.78
2023-03-10T01:46:38.680Z,6.25
2023-03-10T01:49:15.435Z,6.05
2023-03-10T01:51:45.756Z,5.25
2023-03-10T01:54:18.595Z,5.00
2023-03-10T01:56:46.441Z,5.53
2023-03-10T01:59:13.872Z,5.30
2023-03-10T02:01:40.467Z,5.82
2023-03-10T02:04:14.040Z,5.13
2023-03-10T02:06:42.746Z,5.28
2023-03-10T02:11:37.539Z,5.47
2023-03-10T02:14:06.370Z,5.50
2023-03-10T02:16:34.644Z,5.82
2023-03-10T02:19:03.756Z,4.30
2023-03-10T02:21:42.646Z,5.68
2023-03-10T02:24:21.038Z,5.75
2023-03-10T02:26:54.840Z,4.90
2023-03-10T02:29:30.849Z,5.93
2023-03-10T02:31:58.645Z,6.20
2023-03-10T02:34:26.647Z,6.07
2023-03-10T02:36:53.289Z,6.45
2023-03-10T02:39:20.279Z,5.60
2023-03-10T02:41:47.475Z,6.28
2023-03-10T02:44:18.788Z,7.60
2023-03-10T02:46:45.503Z,6.10
2023-03-10T02:49:12.816Z,6.97
2023-03-10T02:51:47.566Z,8.82
2023-03-10T02:54:14.895Z,7.38
2023-03-10T02:56:43.757Z,7.28
2023-03-10T02:59:10.908Z,7.80
2023-03-10T03:01:38.679Z,8.88
2023-03-10T03:04:05.440Z,9.40
2023-03-10T03:06:32.114Z,7.43
2023-03-10T03:08:58.698Z,8.93
2023-03-10T03:11:25.822Z,7.68
2023-03-10T03:13:52.455Z,7.43
2023-03-10T03:16:18.987Z,7.28
2023-03-10T03:18:45.693Z,8.70
2023-03-10T03:21:16.215Z,6.75
2023-03-10T03:23:43.677Z,7.50
2023-03-10T03:26:19.211Z,7.07
2023-03-10T03:28:45.804Z,7.80
2023-03-10T03:31:20.432Z,7.57
2023-03-10T03:33:46.950Z,7.68
2023-03-10T03:36:14.486Z,6.03
2023-03-10T03:38:41.349Z,7.88
2023-03-10T03:41:08.359Z,8.60
2023-03-10T03:43:36.778Z,8.10
2023-03-10T03:46:04.716Z,5.93
2023-03-10T03:48:31.459Z,6.85
2023-03-10T03:50:57.976Z,7.57
2023-03-10T03:53:24.461Z,7.32
2023-03-10T03:55:52.811Z,7.18
2023-03-10T03:58:19.481Z,8.07
2023-03-10T04:00:46.240Z,7.72
2023-03-10T04:03:12.807Z,8.85
2023-03-10T04:05:39.943Z,9.68
2023-03-10T04:08:07.328Z,7.45
2023-03-10T04:10:33.784Z,6.20
2023-03-10T04:13:00.416Z,7.43
2023-03-10T04:15:26.926Z,7.47
2023-03-10T04:17:53.455Z,6.80
2023-03-10T04:20:20.001Z,7.68
2023-03-10T04:22:46.520Z,9.38
2023-03-10T04:25:13.245Z,6.78
2023-03-10T04:27:39.786Z,5.80
2023-03-10T04:30:07.191Z,6.95
2023-03-10T04:32:33.684Z,7.13
2023-03-10T04:35:00.440Z,7.10
2023-03-10T04:37:27.258Z,6.25
2023-03-10T04:39:53.846Z,6.88
2023-03-10T04:42:20.360Z,8.30
2023-03-10T04:44:47.064Z,7.40
2023-03-10T04:47:13.480Z,6.93
2023-03-10T04:49:39.973Z,7.03
2023-03-10T04:52:06.840Z,7.38
2023-03-10T04:54:33.444Z,7.88
2023-03-10T04:57:00.208Z,7.20
2023-03-10T04:59:27.078Z,7.05
2023-03-10T05:01:53.657Z,7.03
2023-03-10T05:04:20.267Z,7.15
2023-03-10T05:06:50.482Z,6.25
2023-03-10T05:09:17.075Z,6.97
2023-03-10T05:11:43.529Z,6.38
2023-03-10T05:14:12.257Z,6.97
2023-03-10T05:19:05.185Z,5.80
2023-03-10T05:21:32.099Z,6.57
2023-03-10T05:23:58.723Z,5.97
2023-03-10T05:26:26.224Z,8.55
2023-03-10T05:28:52.823Z,6.90
2023-03-10T05:31:26.589Z,5.25
2023-03-10T05:33:54.048Z,4.47
2023-03-10T05:36:21.388Z,5.57
2023-03-10T05:38:48.282Z,3.28
2023-03-10T05:41:14.970Z,3.67
2023-03-10T05:43:41.660Z,4.43
2023-03-10T05:46:08.562Z,3.72
2023-03-10T05:48:35.392Z,3.90
2023-03-10T05:51:08.193Z,3.80
2023-03-10T05:53:36.368Z,6.65
2023-03-10T05:56:11.491Z,3.80
2023-03-10T05:58:38.761Z,3.60
2023-03-10T06:01:06.388Z,3.47
2023-03-10T06:03:33.575Z,4.55
2023-03-10T06:06:01.090Z,3.63
2023-03-10T06:08:28.067Z,4.88
2023-03-10T06:10:54.926Z,4.63
2023-03-10T06:13:21.686Z,4.47
2023-03-10T06:15:54.417Z,3.97
2023-03-10T06:18:21.562Z,3.65
2023-03-10T06:20:49.120Z,3.97
2023-03-10T06:23:16.583Z,5.47
2023-03-10T06:25:43.352Z,4.50
2023-03-10T06:28:10.640Z,3.38
2023-03-10T06:30:39.673Z,3.50
2023-03-10T06:33:06.173Z,3.03
2023-03-10T06:35:33.248Z,2.75
2023-03-10T06:38:04.512Z,2.40
2023-03-10T06:40:33.529Z,3.45
2023-03-10T06:43:02.144Z,4.93
2023-03-10T06:45:28.786Z,3.45
2023-03-10T06:47:55.322Z,2.70
2023-03-10T06:50:21.852Z,3.47
2023-03-10T06:52:48.324Z,2.63
2023-03-10T06:55:18.107Z,3.08
2023-03-10T06:57:44.722Z,3.75
2023-03-10T07:00:15.592Z,4.30
2023-03-10T07:02:42.994Z,3.47
2023-03-10T07:05:14.127Z,3.30
2023-03-10T07:07:41.172Z,3.08
2023-03-10T07:10:08.888Z,2.63
2023-03-10T07:12:35.346Z,4.63
2023-03-10T07:15:01.843Z,2.80
2023-03-10T07:17:28.335Z,3.10
2023-03-10T07:19:54.821Z,3.38
2023-03-10T07:22:21.216Z,3.45
2023-03-10T07:24:47.650Z,3.50
2023-03-10T07:27:14.086Z,2.90
2023-03-10T07:29:40.478Z,3.72
2023-03-10T07:32:07.012Z,3.33
2023-03-10T07:34:33.500Z,3.08
2023-03-10T07:37:00.011Z,3.33
2023-03-10T07:39:26.641Z,3.60
2023-03-10T07:41:53.213Z,4.88
2023-03-10T07:44:19.739Z,3.35
2023-03-10T07:46:46.201Z,5.47
2023-03-10T07:49:14.936Z,4.43
2023-03-10T07:54:13.648Z,4.97
2023-03-10T07:56:40.141Z,4.32
2023-03-10T07:59:06.627Z,4.80
2023-03-10T08:01:33.198Z,4.50
2023-03-10T08:03:59.695Z,6.40
2023-03-10T08:06:28.627Z,4.63
2023-03-10T08:11:27.806Z,4.18
2023-03-10T08:13:54.413Z,4.85
2023-03-10T08:16:24.487Z,5.30
2023-03-10T08:18:57.307Z,7.43
2023-03-10T08:21:24.784Z,5.85
2023-03-10T08:23:51.407Z,4.32
2023-03-10T08:26:18.419Z,6.95
2023-03-10T08:28:45.601Z,5.28
2023-03-10T08:31:15.660Z,4.78
2023-03-10T08:33:43.326Z,6.10
2023-03-10T08:36:19.739Z,7.10
2023-03-10T08:38:49.047Z,6.30
2023-03-10T08:41:19.383Z,5.95
2023-03-10T08:43:49.293Z,5.43
2023-03-10T08:46:17.720Z,6.18
2023-03-10T08:48:44.251Z,5.68
2023-03-10T08:51:13.115Z,4.80
2023-03-10T08:53:41.723Z,6.32
2023-03-10T08:56:08.349Z,5.50
2023-03-10T08:58:34.870Z,4.22
2023-03-10T09:01:01.469Z,4.53
2023-03-10T09:03:31.383Z,4.05
2023-03-10T09:05:58.259Z,3.67
2023-03-10T09:08:27.448Z,4.00
2023-03-10T09:10:54.177Z,4.93
2023-03-10T09:13:21.072Z,4.18
2023-03-10T09:15:47.595Z,4.55
2023-03-10T09:18:16.081Z,4.25
2023-03-10T09:20:43.811Z,5.30
2023-03-10T09:23:12.589Z,4.38
2023-03-10T09:28:10.486Z,4.78
2023-03-10T09:30:39.472Z,3.30
2023-03-10T09:33:08.986Z,5.20
2023-03-10T09:35:39.372Z,3.88
2023-03-10T09:38:08.480Z,3.72
2023-03-10T09:40:37.011Z,2.70
2023-03-10T09:43:12.606Z,5.57
2023-03-10T09:46:20.897Z,4.03
2023-03-10T09:51:31.633Z,3.60
2023-03-10T09:54:16.113Z,4.07
2023-03-10T09:56:42.898Z,4.88
2023-03-10T09:59:17.011Z,3.72
2023-03-10T10:01:48.413Z,4.13
2023-03-10T10:04:23.248Z,3.88
2023-03-10T10:06:51.134Z,3.40
2023-03-10T10:09:43.054Z,3.53
2023-03-10T10:12:12.868Z,4.82
2023-03-10T10:14:42.654Z,5.70
2023-03-10T10:17:29.486Z,3.72
2023-03-10T10:19:57.586Z,3.95
2023-03-10T10:22:28.151Z,3.65
2023-03-10T10:25:13.973Z,4.40
2023-03-10T10:27:42.444Z,4.25
2023-03-10T10:30:32.497Z,2.05
2023-03-10T10:33:11.384Z,2.97
2023-03-10T10:35:40.644Z,4.57
2023-03-10T10:38:09.876Z,3.10
2023-03-10T10:41:01.904Z,3.67
2023-03-10T10:43:29.214Z,3.13
2023-03-10T10:46:05.842Z,3.28
2023-03-10T10:48:40.375Z,4.05
2023-03-10T10:51:20.638Z,3.80
2023-03-10T10:53:47.374Z,3.20
2023-03-10T10:56:18.866Z,4.10
2023-03-10T10:59:04.746Z,3.13
2023-03-10T11:01:54.380Z,5.97
2023-03-10T11:04:22.893Z,5.25
2023-03-10T11:06:49.845Z,3.08
2023-03-10T11:09:22.630Z,3.22
2023-03-10T11:12:20.156Z,6.35
2023-03-10T11:15:07.543Z,5.55
2023-03-10T11:17:36.767Z,4.47
2023-03-10T11:20:30.158Z,3.50
2023-03-10T11:23:12.270Z,3.50
2023-03-10T11:25:46.709Z,3.40
2023-03-10T11:28:46.519Z,3.60
2023-03-10T11:31:37.124Z,2.97
2023-03-10T11:34:23.107Z,3.10
2023-03-10T11:37:14.365Z,3.67
2023-03-10T11:40:11.561Z,2.95
2023-03-10T11:42:51.329Z,3.90
2023-03-10T11:45:33.442Z,4.50
2023-03-10T11:48:23.479Z,4.50
2023-03-10T11:50:55.877Z,2.83
2023-03-10T11:53:42.387Z,3.75
2023-03-10T11:56:11.623Z,2.60
2023-03-10T11:59:06.471Z,2.25
2023-03-10T12:01:40.530Z,2.78
2023-03-10T12:04:17.760Z,3.63
2023-03-10T12:07:04.243Z,2.63
2023-03-10T12:09:46.667Z,2.58
2023-03-10T12:12:29.412Z,2.65
2023-03-10T12:14:58.236Z,3.35
2023-03-10T12:17:24.901Z,2.25
2023-03-10T12:20:17.015Z,2.35
2023-03-10T12:22:53.250Z,2.25
2023-03-10T12:25:38.032Z,4.93
2023-03-10T12:28:16.592Z,5.00
2023-03-10T12:33:40.735Z,1.92
2023-03-10T12:36:31.324Z,2.33
2023-03-10T12:38:59.760Z,3.05
2023-03-10T12:41:26.301Z,2.45
2023-03-10T12:44:13.316Z,1.88
2023-03-10T12:47:16.041Z,1.90
2023-03-10T12:50:00.690Z,1.83
2023-03-10T12:52:45.153Z,1.73
2023-03-10T12:55:22.267Z,3.63
2023-03-10T12:58:05.324Z,2.70
2023-03-10T13:00:38.022Z,2.60
2023-03-10T13:03:16.972Z,4.68
2023-03-10T13:06:00.862Z,4.55
2023-03-10T13:08:44.294Z,3.10
2023-03-10T13:11:15.514Z,2.35
2023-03-10T13:13:42.945Z,1.67
2023-03-10T13:16:20.863Z,2.30
2023-03-10T13:18:49.679Z,3.88
2023-03-10T13:21:38.559Z,2.55
2023-03-10T13:24:21.306Z,4.07
2023-03-10T13:26:47.917Z,3.50
2023-03-10T13:29:19.484Z,3.42
2023-03-10T13:31:56.201Z,3.67
2023-03-10T13:34:27.564Z,4.97
2023-03-10T13:37:02.769Z,4.90
2023-03-10T13:39:29.344Z,5.55
2023-03-10T13:41:59.559Z,5.38
2023-03-10T13:44:33.646Z,3.88
2023-03-10T13:47:04.361Z,3.72
2023-03-10T13:49:34.372Z,5.75
2023-03-10T13:52:06.249Z,4.55
2023-03-10T13:54:37.960Z,4.35
2023-03-10T13:57:34.532Z,4.10
2023-03-10T14:00:02.187Z,4.07
2023-03-10T14:02:32.564Z,3.53
2023-03-10T14:05:00.701Z,4.78
2023-03-10T14:07:36.179Z,4.00
2023-03-10T14:10:09.963Z,4.72
2023-03-10T14:12:36.482Z,4.47
2023-03-10T14:15:30.808Z,3.83
2023-03-10T14:18:09.277Z,3.33
2023-03-10T14:20:46.587Z,3.00
2023-03-10T14:23:19.206Z,2.92
2023-03-10T14:25:51.730Z,4.07
2023-03-10T14:28:25.249Z,4.30
2023-03-10T14:30:52.649Z,4.63
2023-03-10T14:33:19.716Z,4.35
2023-03-10T14:35:46.663Z,4.25
2023-03-10T14:38:13.207Z,3.85
2023-03-10T14:40:43.176Z,3.53
2023-03-10T14:43:15.713Z,2.92
2023-03-10T14:45:44.385Z,3.50
2023-03-10T14:48:20.024Z,3.33
2023-03-10T14:50:47.436Z,4.18
2023-03-10T14:53:16.169Z,3.88
2023-03-10T14:58:18.227Z,2.90
2023-03-10T15:00:44.654Z,4.30
2023-03-10T15:03:12.463Z,4.63
2023-03-10T15:05:48.143Z,5.00
2023-03-10T15:08:16.039Z,4.28
2023-03-10T15:10:47.956Z,3.97
2023-03-10T15:13:15.253Z,4.35
2023-03-10T15:15:44.693Z,3.40
2023-03-10T15:18:17.426Z,3.75
2023-03-10T15:20:43.869Z,17.55
2023-03-10T15:23:13.885Z,4.25
2023-03-10T15:25:43.230Z,3.92
2023-03-10T15:30:37.610Z,5.32
2023-03-10T15:33:04.118Z,5.38
2023-03-10T15:35:31.090Z,5.30
2023-03-10T15:37:58.418Z,4.70
2023-03-10T15:40:27.378Z,5.50
2023-03-10T15:42:57.647Z,6.15
2023-03-10T15:45:26.324Z,6.45
2023-03-10T15:47:53.112Z,6.35
2023-03-10T15:50:20.467Z,5.07
2023-03-10T15:52:47.910Z,5.30
2023-03-10T15:55:15.113Z,4.68
2023-03-10T15:57:42.318Z,3.35
2023-03-10T16:00:11.925Z,2.97
2023-03-10T16:02:38.421Z,3.55
2023-03-10T16:05:06.308Z,3.33
2023-03-10T16:07:35.446Z,3.33
2023-03-10T16:10:02.082Z,3.30
2023-03-10T16:12:28.697Z,2.53
2023-03-10T16:14:55.479Z,3.08
2023-03-10T16:17:22.778Z,2.78
2023-03-10T16:19:49.315Z,3.35
2023-03-10T16:22:15.978Z,2.70
2023-03-10T16:24:43.451Z,3.53
2023-03-10T16:27:10.060Z,3.72
2023-03-10T16:29:37.631Z,4.13
2023-03-10T16:32:04.341Z,4.78
2023-03-10T16:34:30.812Z,3.92
2023-03-10T16:36:57.661Z,4.25
2023-03-10T16:39:24.583Z,6.45
2023-03-10T16:41:51.309Z,6.03
2023-03-10T16:44:17.809Z,3.85
2023-03-10T16:46:44.277Z,2.83
2023-03-10T16:49:14.866Z,3.75
2023-03-10T16:51:43.821Z,3.85
2023-03-10T16:54:16.330Z,5.60
2023-03-10T16:56:45.895Z,5.28
2023-03-10T16:59:17.008Z,5.50
2023-03-10T17:01:44.771Z,3.80
2023-03-10T17:04:11.630Z,4.88
2023-03-10T17:06:39.275Z,5.40
2023-03-10T17:09:08.896Z,5.00
2023-03-10T17:11:38.043Z,6.70
2023-03-10T17:14:15.794Z,8.43
2023-03-10T17:16:43.272Z,8.23
2023-03-10T17:19:21.404Z,5.85
2023-03-10T17:21:51.534Z,5.10
2023-03-10T17:24:19.292Z,5.30
2023-03-10T17:26:46.130Z,3.38
2023-03-10T17:29:12.803Z,3.92
2023-03-10T17:31:39.560Z,4.13
2023-03-10T17:34:08.453Z,5.47
2023-03-10T17:36:35.121Z,5.38
2023-03-10T17:39:02.696Z,5.53
2023-03-10T17:41:30.755Z,5.13
2023-03-10T17:43:57.716Z,4.47
2023-03-10T17:46:29.770Z,4.30
2023-03-10T17:48:57.572Z,5.20
2023-03-10T17:51:26.973Z,4.25
2023-03-10T17:53:57.163Z,3.75
2023-03-10T17:56:24.209Z,3.28
2023-03-10T17:58:56.032Z,5.10
2023-03-10T18:01:27.649Z,3.65
2023-03-10T18:03:55.923Z,2.50
2023-03-10T18:06:27.501Z,1.27
2023-03-10T18:08:56.188Z,2.35
2023-03-10T18:11:28.127Z,3.17
2023-03-10T18:13:54.780Z,2.78
2023-03-10T18:16:30.167Z,1.30
2023-03-10T18:18:58.329Z,2.95
2023-03-10T18:21:25.810Z,2.22
2023-03-10T18:23:52.581Z,3.53
2023-03-10T18:26:22.059Z,1.70
2023-03-10T18:28:48.524Z,1.58
2023-03-10T18:31:25.124Z,2.22
2023-03-10T18:33:51.634Z,1.25
2023-03-10T18:36:19.678Z,1.02
2023-03-10T18:38:47.508Z,1.08
2023-03-10T18:41:14.260Z,1.47
2023-03-10T18:43:40.731Z,3.03
2023-03-10T18:46:08.425Z,1.20
2023-03-10T18:48:34.978Z,2.33
2023-03-10T18:51:01.996Z,0.93
2023-03-10T18:53:28.739Z,1.42
2023-03-10T18:55:57.602Z,1.75
2023-03-10T18:58:24.423Z,2.47
2023-03-10T19:00:51.199Z,3.80
2023-03-10T19:03:19.020Z,3.95
2023-03-10T19:05:46.441Z,2.33
2023-03-10T19:08:13.018Z,2.13
2023-03-10T19:10:40.166Z,1.83
2023-03-10T19:13:07.485Z,1.77
2023-03-10T19:15:36.335Z,3.35
2023-03-10T19:18:02.866Z,1.25
2023-03-10T19:20:29.585Z,1.65
2023-03-10T19:22:56.143Z,2.20
2023-03-10T19:25:23.843Z,2.20
2023-03-10T19:27:50.326Z,5.25
2023-03-10T19:30:20.248Z,2.65
2023-03-10T19:32:47.435Z,4.40
2023-03-10T19:35:15.544Z,3.15
2023-03-10T19:37:43.487Z,3.88
2023-03-10T19:40:14.790Z,4.25
2023-03-10T19:42:42.830Z,4.18
2023-03-10T19:45:15.181Z,3.10
2023-03-10T19:47:42.062Z,2.67
2023-03-10T19:50:11.312Z,3.38
2023-03-10T19:52:42.220Z,2.75
2023-03-10T19:55:10.657Z,2.92
2023-03-10T19:57:37.056Z,4.15
2023-03-10T20:00:06.089Z,4.28
2023-03-10T20:02:32.751Z,4.57
2023-03-10T20:04:59.225Z,5.20
2023-03-10T20:07:25.789Z,6.13
2023-03-10T20:09:52.433Z,7.50
2023-03-10T20:12:18.916Z,5.18
2023-03-10T20:14:45.413Z,3.22
2023-03-10T20:17:12.049Z,4.40
2023-03-10T20:19:40.575Z,2.78
2023-03-10T20:22:07.101Z,2.35
2023-03-10T20:24:33.526Z,3.10
2023-03-10T20:27:03.045Z,2.03
2023-03-10T20:29:29.561Z,4.50
2023-03-10T20:31:56.124Z,2.30
2023-03-10T20:34:22.698Z,3.13
2023-03-10T20:40:24.659Z,6.28
2023-03-10T20:42:52.655Z,6.00
2023-03-10T20:45:19.255Z,5.20
2023-03-10T20:47:45.943Z,6.53
2023-03-10T20:50:12.637Z,4.32
2023-03-10T20:52:41.908Z,4.70
2023-03-10T20:55:14.947Z,3.75
2023-03-10T20:57:41.405Z,7.70
2023-03-10T21:00:08.918Z,3.95
2023-03-10T21:02:35.395Z,3.67
2023-03-10T21:05:04.940Z,5.22
2023-03-10T21:07:33.251Z,5.50
2023-03-10T21:10:00.202Z,6.22
2023-03-10T21:12:28.241Z,4.10
2023-03-10T21:14:54.747Z,5.43
2023-03-10T21:17:21.243Z,4.60
2023-03-10T21:19:47.736Z,5.20
2023-03-10T21:22:14.166Z,3.15
2023-03-10T21:24:40.605Z,1.73
2023-03-10T21:27:07.407Z,6.53
2023-03-10T21:29:34.595Z,4.07
2023-03-10T21:32:01.161Z,3.20
2023-03-10T21:34:27.660Z,3.83
2023-03-10T21:36:54.045Z,3.67
2023-03-10T21:39:20.589Z,3.30
2023-03-10T21:41:47.001Z,2.85
2023-03-10T21:44:13.506Z,1.67
2023-03-10T21:46:40.203Z,3.97
2023-03-10T21:49:07.366Z,3.75
2023-03-10T21:51:34.915Z,2.92
2023-03-10T21:54:02.633Z,3.28
2023-03-10T21:56:29.346Z,1.70
2023-03-10T21:58:56.928Z,5.05
2023-03-10T22:01:24.044Z,2.95
2023-03-10T22:03:50.526Z,6.78
2023-03-10T22:06:17.006Z,4.32
2023-03-10T22:08:43.470Z,4.25
2023-03-10T22:11:10.053Z,3.03
2023-03-10T22:13:38.030Z,6.32
2023-03-10T22:16:07.162Z,4.68
2023-03-10T22:18:33.857Z,6.15
2023-03-10T22:21:00.421Z,3.83
2023-03-10T22:23:26.879Z,6.40
2023-03-10T22:25:53.386Z,3.30
2023-03-10T22:28:19.793Z,4.47
2023-03-10T22:30:46.284Z,4.05
2023-03-10T22:33:12.826Z,5.38
2023-03-10T22:35:39.305Z,3.05
2023-03-10T22:38:06.345Z,8.90
2023-03-10T22:40:32.884Z,4.25
2023-03-10T22:42:59.499Z,7.30
2023-03-10T22:45:29.739Z,8.23
2023-03-10T22:47:59.291Z,6.20
2023-03-10T22:50:28.844Z,5.35
2023-03-10T22:52:55.413Z,4.70
2023-03-10T22:55:24.641Z,3.75
2023-03-10T22:57:52.436Z,2.97
2023-03-10T23:00:24.086Z,2.80
2023-03-10T23:02:52.131Z,5.78
2023-03-10T23:05:18.767Z,4.35
2023-03-10T23:07:46.433Z,3.53
2023-03-10T23:10:22.842Z,7.18
2023-03-10T23:12:50.236Z,3.92
2023-03-10T23:15:25.251Z,6.20
2023-03-10T23:17:52.884Z,5.43
2023-03-10T23:20:19.495Z,6.75
2023-03-10T23:25:31.075Z,3.25
2023-03-10T23:27:58.280Z,4.72
2023-03-10T23:30:25.111Z,3.90
2023-03-10T23:32:52.448Z,3.97
2023-03-10T23:35:22.643Z,5.75
2023-03-10T23:37:49.165Z,6.65
2023-03-10T23:40:18.452Z,5.90
2023-03-10T23:42:45.695Z,4.18
2023-03-10T23:45:15.777Z,5.30
2023-03-10T23:47:42.556Z,4.93
2023-03-10T23:50:14.016Z,7.10
2023-03-10T23:52:40.488Z,7.10
2023-03-10T23:55:07.501Z,8.48
2023-03-10T23:57:33.940Z,4.53
